HRGA4: Little River, Horatio, AR

Data processed at Fri Dec 08 2017 23:10


All information presented herein is the property of the government of the United States of America and may be revised or deleted at any time without prior notice.
Dissemination of this information without the expressed written consent of the Public Affairs Office, Tulsa District U.S. Army Corps of Engineers is strictly prohibited.
These data are gathered electronically and, as presented, have not undergone any form of quality control. These data are not guaranteed to be valid or correct.
Go to home page.
Go to station list.

Upstream stations:

Downstream station:
Previous Day
Next Day
Current Day
    
SHEF ID:       HRGA4     Little River near Horatio, AR
STATION TYPE:  

               PRECIP     STAGE  RIV-FLOW  BAT-LOAD
                   in        ft       cfs      volt
              Ccp-Rev   Ccp-Rev   Ccp-Rev   Ccp-Rev
(US/Central)
12/06 00:00      0.00      6.07      1041     12.97
12/06 01:00      0.00      6.13      1078     12.89
12/06 02:00      0.00      6.15      1090     12.89
12/06 03:00      0.00      6.13      1078     12.89
12/06 04:00      0.00      6.11      1066     12.89
12/06 05:00      0.00      6.13      1078     12.81
12/06 06:00      0.00      6.21      1127     12.81
12/06 07:00      0.00      6.36      1219     12.81
12/06 08:00      0.00      6.51      1314     12.73
12/06 09:00      0.00      6.62      1383     12.73
12/06 10:00      0.00      6.67      1415     12.97
12/06 11:00      0.00      6.68      1422     13.44
12/06 12:00      0.00      6.65      1402     13.60
12/06 13:00      0.00      6.60      1371     13.60
12/06 14:00      0.00      6.52      1320     13.68
12/06 15:00      0.00      6.43      1263     13.53
12/06 16:00      0.00      6.31      1188     13.37
12/06 17:00      0.00      6.20      1120     13.21
12/06 18:00      0.00      6.08      1047     13.13
12/06 19:00      0.00      5.97       981     13.05
12/06 20:00      0.00      5.87       921     13.05
12/06 21:00      0.00      5.77       863     12.97
12/06 22:00      0.00      5.68       810     12.97
12/06 23:00      0.00      5.59       758     12.97